sensor_id;sensor_type;location;lat;lon;timestamp;P1;durP1;ratioP1;P2;durP2;ratioP2
54464;SDS011;40374;49.480;20.016;2023-06-14T00:01:52;30.60;;;14.38;;
54464;SDS011;40374;49.480;20.016;2023-06-14T00:04:19;29.35;;;14.90;;
54464;SDS011;40374;49.480;20.016;2023-06-14T00:06:47;30.10;;;14.98;;
54464;SDS011;40374;49.480;20.016;2023-06-14T00:09:18;28.58;;;14.35;;
54464;SDS011;40374;49.480;20.016;2023-06-14T00:11:45;33.35;;;14.57;;
54464;SDS011;40374;49.480;20.016;2023-06-14T00:14:13;32.03;;;15.55;;
54464;SDS011;40374;49.480;20.016;2023-06-14T00:16:40;26.52;;;13.07;;
54464;SDS011;40374;49.480;20.016;2023-06-14T00:19:12;29.35;;;13.13;;
54464;SDS011;40374;49.480;20.016;2023-06-14T00:21:39;26.70;;;12.70;;
54464;SDS011;40374;49.480;20.016;2023-06-14T00:24:07;27.15;;;12.63;;
54464;SDS011;40374;49.480;20.016;2023-06-14T00:26:35;26.70;;;12.38;;
54464;SDS011;40374;49.480;20.016;2023-06-14T00:29:02;29.00;;;13.40;;
54464;SDS011;40374;49.480;20.016;2023-06-14T00:31:30;24.05;;;10.93;;
54464;SDS011;40374;49.480;20.016;2023-06-14T00:33:58;26.13;;;9.77;;
54464;SDS011;40374;49.480;20.016;2023-06-14T00:36:25;19.85;;;8.00;;
54464;SDS011;40374;49.480;20.016;2023-06-14T00:38:53;18.90;;;9.25;;
54464;SDS011;40374;49.480;20.016;2023-06-14T00:41:21;22.20;;;9.07;;
54464;SDS011;40374;49.480;20.016;2023-06-14T00:43:49;16.77;;;9.63;;
54464;SDS011;40374;49.480;20.016;2023-06-14T00:46:17;13.75;;;7.80;;
54464;SDS011;40374;49.480;20.016;2023-06-14T00:48:46;25.08;;;9.38;;
54464;SDS011;40374;49.480;20.016;2023-06-14T00:51:15;35.50;;;10.07;;
54464;SDS011;40374;49.480;20.016;2023-06-14T00:53:43;21.00;;;9.07;;
54464;SDS011;40374;49.480;20.016;2023-06-14T00:56:14;23.52;;;9.55;;
54464;SDS011;40374;49.480;20.016;2023-06-14T00:58:42;25.83;;;9.38;;
54464;SDS011;40374;49.480;20.016;2023-06-14T01:01:10;24.67;;;11.30;;
54464;SDS011;40374;49.480;20.016;2023-06-14T01:03:38;36.63;;;11.52;;
54464;SDS011;40374;49.480;20.016;2023-06-14T01:09:01;43.80;;;13.25;;
54464;SDS011;40374;49.480;20.016;2023-06-14T01:11:41;46.40;;;13.82;;
54464;SDS011;40374;49.480;20.016;2023-06-14T01:14:29;35.33;;;12.20;;
54464;SDS011;40374;49.480;20.016;2023-06-14T01:16:58;65.68;;;15.75;;
54464;SDS011;40374;49.480;20.016;2023-06-14T01:19:27;66.70;;;14.27;;
54464;SDS011;40374;49.480;20.016;2023-06-14T01:21:55;65.40;;;16.40;;
54464;SDS011;40374;49.480;20.016;2023-06-14T01:24:23;89.38;;;18.35;;
54464;SDS011;40374;49.480;20.016;2023-06-14T01:26:53;78.97;;;16.65;;
54464;SDS011;40374;49.480;20.016;2023-06-14T01:29:23;136.15;;;19.88;;
54464;SDS011;40374;49.480;20.016;2023-06-14T01:31:54;176.93;;;25.10;;
54464;SDS011;40374;49.480;20.016;2023-06-14T01:34:22;156.73;;;21.65;;
54464;SDS011;40374;49.480;20.016;2023-06-14T01:36:50;212.90;;;23.27;;
54464;SDS011;40374;49.480;20.016;2023-06-14T01:39:22;162.02;;;23.35;;
54464;SDS011;40374;49.480;20.016;2023-06-14T01:41:50;140.57;;;24.23;;
54464;SDS011;40374;49.480;20.016;2023-06-14T01:44:19;153.38;;;24.25;;
54464;SDS011;40374;49.480;20.016;2023-06-14T01:46:48;166.98;;;23.85;;
54464;SDS011;40374;49.480;20.016;2023-06-14T01:49:16;187.70;;;25.05;;
54464;SDS011;40374;49.480;20.016;2023-06-14T01:51:43;228.75;;;24.73;;
54464;SDS011;40374;49.480;20.016;2023-06-14T01:54:11;149.75;;;21.88;;
54464;SDS011;40374;49.480;20.016;2023-06-14T01:56:38;168.57;;;22.17;;
54464;SDS011;40374;49.480;20.016;2023-06-14T01:59:06;130.68;;;21.38;;
54464;SDS011;40374;49.480;20.016;2023-06-14T02:01:33;218.77;;;23.65;;
54464;SDS011;40374;49.480;20.016;2023-06-14T02:04:01;215.32;;;25.63;;
54464;SDS011;40374;49.480;20.016;2023-06-14T02:06:29;144.35;;;23.33;;
54464;SDS011;40374;49.480;20.016;2023-06-14T02:08:59;125.95;;;23.42;;
54464;SDS011;40374;49.480;20.016;2023-06-14T02:11:27;166.82;;;23.88;;
54464;SDS011;40374;49.480;20.016;2023-06-14T02:13:55;95.57;;;22.42;;
54464;SDS011;40374;49.480;20.016;2023-06-14T02:16:22;76.65;;;22.15;;
54464;SDS011;40374;49.480;20.016;2023-06-14T02:18:52;68.38;;;21.70;;
54464;SDS011;40374;49.480;20.016;2023-06-14T02:21:19;62.58;;;19.95;;
54464;SDS011;40374;49.480;20.016;2023-06-14T02:23:47;69.03;;;20.92;;
54464;SDS011;40374;49.480;20.016;2023-06-14T02:26:14;58.90;;;19.80;;
54464;SDS011;40374;49.480;20.016;2023-06-14T02:28:42;60.92;;;20.65;;
54464;SDS011;40374;49.480;20.016;2023-06-14T02:31:09;62.35;;;20.63;;
54464;SDS011;40374;49.480;20.016;2023-06-14T02:33:38;50.53;;;19.70;;
54464;SDS011;40374;49.480;20.016;2023-06-14T02:36:05;40.20;;;16.88;;
54464;SDS011;40374;49.480;20.016;2023-06-14T02:38:34;42.65;;;17.77;;
54464;SDS011;40374;49.480;20.016;2023-06-14T02:41:01;41.58;;;16.08;;
54464;SDS011;40374;49.480;20.016;2023-06-14T02:43:29;36.42;;;15.80;;
54464;SDS011;40374;49.480;20.016;2023-06-14T02:45:57;31.05;;;12.65;;
54464;SDS011;40374;49.480;20.016;2023-06-14T02:48:25;30.05;;;14.40;;
54464;SDS011;40374;49.480;20.016;2023-06-14T02:50:52;32.35;;;12.60;;
54464;SDS011;40374;49.480;20.016;2023-06-14T02:53:20;33.85;;;13.65;;
54464;SDS011;40374;49.480;20.016;2023-06-14T02:55:47;37.88;;;14.43;;
54464;SDS011;40374;49.480;20.016;2023-06-14T02:58:15;42.90;;;14.63;;
54464;SDS011;40374;49.480;20.016;2023-06-14T03:00:43;40.25;;;14.07;;
54464;SDS011;40374;49.480;20.016;2023-06-14T03:03:12;36.53;;;13.45;;
54464;SDS011;40374;49.480;20.016;2023-06-14T03:05:50;43.47;;;14.60;;
54464;SDS011;40374;49.480;20.016;2023-06-14T03:08:22;44.20;;;14.63;;
54464;SDS011;40374;49.480;20.016;2023-06-14T03:10:56;97.10;;;17.10;;
54464;SDS011;40374;49.480;20.016;2023-06-14T03:13:25;50.50;;;14.65;;
54464;SDS011;40374;49.480;20.016;2023-06-14T03:15:53;103.22;;;15.50;;
54464;SDS011;40374;49.480;20.016;2023-06-14T03:18:24;97.85;;;16.48;;
54464;SDS011;40374;49.480;20.016;2023-06-14T03:20:55;78.75;;;17.60;;
54464;SDS011;40374;49.480;20.016;2023-06-14T03:23:25;114.15;;;18.02;;
54464;SDS011;40374;49.480;20.016;2023-06-14T03:25:53;95.57;;;18.25;;
54464;SDS011;40374;49.480;20.016;2023-06-14T03:28:21;137.98;;;17.35;;
54464;SDS011;40374;49.480;20.016;2023-06-14T03:30:49;115.90;;;16.52;;
54464;SDS011;40374;49.480;20.016;2023-06-14T03:33:17;104.53;;;18.20;;
54464;SDS011;40374;49.480;20.016;2023-06-14T03:35:44;85.90;;;18.75;;
54464;SDS011;40374;49.480;20.016;2023-06-14T03:38:12;126.32;;;18.98;;
54464;SDS011;40374;49.480;20.016;2023-06-14T03:40:40;115.05;;;17.48;;
54464;SDS011;40374;49.480;20.016;2023-06-14T03:43:08;113.90;;;18.00;;
54464;SDS011;40374;49.480;20.016;2023-06-14T03:45:35;124.30;;;17.83;;
54464;SDS011;40374;49.480;20.016;2023-06-14T03:48:03;85.25;;;19.27;;
54464;SDS011;40374;49.480;20.016;2023-06-14T03:50:34;125.53;;;20.75;;
54464;SDS011;40374;49.480;20.016;2023-06-14T03:53:06;90.30;;;18.02;;
54464;SDS011;40374;49.480;20.016;2023-06-14T03:55:35;107.45;;;18.10;;
54464;SDS011;40374;49.480;20.016;2023-06-14T03:58:05;99.03;;;18.50;;
54464;SDS011;40374;49.480;20.016;2023-06-14T04:00:35;133.73;;;17.58;;
54464;SDS011;40374;49.480;20.016;2023-06-14T04:03:03;113.45;;;17.98;;
54464;SDS011;40374;49.480;20.016;2023-06-14T04:05:32;96.75;;;17.13;;
54464;SDS011;40374;49.480;20.016;2023-06-14T04:08:00;88.15;;;18.75;;
54464;SDS011;40374;49.480;20.016;2023-06-14T04:10:30;81.47;;;16.00;;
54464;SDS011;40374;49.480;20.016;2023-06-14T04:12:58;109.57;;;17.33;;
54464;SDS011;40374;49.480;20.016;2023-06-14T04:15:25;70.43;;;18.27;;
54464;SDS011;40374;49.480;20.016;2023-06-14T04:17:56;80.43;;;20.25;;
54464;SDS011;40374;49.480;20.016;2023-06-14T04:20:25;68.53;;;18.92;;
54464;SDS011;40374;49.480;20.016;2023-06-14T04:22:56;68.93;;;20.45;;
54464;SDS011;40374;49.480;20.016;2023-06-14T04:25:24;77.40;;;22.05;;
54464;SDS011;40374;49.480;20.016;2023-06-14T04:27:55;66.40;;;19.58;;
54464;SDS011;40374;49.480;20.016;2023-06-14T04:30:23;55.38;;;19.10;;
54464;SDS011;40374;49.480;20.016;2023-06-14T04:32:54;51.90;;;16.55;;
54464;SDS011;40374;49.480;20.016;2023-06-14T04:35:23;51.58;;;15.23;;
54464;SDS011;40374;49.480;20.016;2023-06-14T04:37:52;41.75;;;15.27;;
54464;SDS011;40374;49.480;20.016;2023-06-14T04:40:21;31.45;;;11.32;;
54464;SDS011;40374;49.480;20.016;2023-06-14T04:42:48;29.48;;;12.55;;
54464;SDS011;40374;49.480;20.016;2023-06-14T04:45:18;26.92;;;11.07;;
54464;SDS011;40374;49.480;20.016;2023-06-14T04:47:46;23.67;;;10.75;;
54464;SDS011;40374;49.480;20.016;2023-06-14T04:50:14;20.40;;;10.30;;
54464;SDS011;40374;49.480;20.016;2023-06-14T04:52:43;19.73;;;9.85;;
54464;SDS011;40374;49.480;20.016;2023-06-14T04:55:11;20.05;;;9.73;;
54464;SDS011;40374;49.480;20.016;2023-06-14T04:57:39;21.77;;;10.32;;
54464;SDS011;40374;49.480;20.016;2023-06-14T05:00:08;19.58;;;9.35;;
54464;SDS011;40374;49.480;20.016;2023-06-14T05:02:39;19.25;;;9.65;;
54464;SDS011;40374;49.480;20.016;2023-06-14T05:05:08;18.98;;;9.18;;
54464;SDS011;40374;49.480;20.016;2023-06-14T05:07:36;17.40;;;9.77;;
54464;SDS011;40374;49.480;20.016;2023-06-14T05:10:08;16.45;;;9.13;;
54464;SDS011;40374;49.480;20.016;2023-06-14T05:12:36;19.77;;;9.80;;
54464;SDS011;40374;49.480;20.016;2023-06-14T05:15:05;20.17;;;9.38;;
54464;SDS011;40374;49.480;20.016;2023-06-14T05:17:33;20.20;;;10.23;;
54464;SDS011;40374;49.480;20.016;2023-06-14T05:20:03;19.23;;;11.25;;
54464;SDS011;40374;49.480;20.016;2023-06-14T05:22:31;17.60;;;9.73;;
54464;SDS011;40374;49.480;20.016;2023-06-14T05:24:59;19.33;;;11.10;;
54464;SDS011;40374;49.480;20.016;2023-06-14T05:27:27;24.73;;;11.02;;
54464;SDS011;40374;49.480;20.016;2023-06-14T05:29:54;24.77;;;12.65;;
54464;SDS011;40374;49.480;20.016;2023-06-14T05:32:26;22.23;;;11.75;;
54464;SDS011;40374;49.480;20.016;2023-06-14T05:34:53;19.67;;;11.10;;
54464;SDS011;40374;49.480;20.016;2023-06-14T05:37:21;19.58;;;10.30;;
54464;SDS011;40374;49.480;20.016;2023-06-14T05:39:48;19.35;;;10.07;;
54464;SDS011;40374;49.480;20.016;2023-06-14T05:42:15;19.02;;;9.60;;
54464;SDS011;40374;49.480;20.016;2023-06-14T05:44:43;15.90;;;8.68;;
54464;SDS011;40374;49.480;20.016;2023-06-14T05:47:10;20.92;;;9.23;;
54464;SDS011;40374;49.480;20.016;2023-06-14T05:49:38;29.95;;;10.60;;
54464;SDS011;40374;49.480;20.016;2023-06-14T05:52:06;19.13;;;9.40;;
54464;SDS011;40374;49.480;20.016;2023-06-14T05:54:34;19.50;;;9.35;;
54464;SDS011;40374;49.480;20.016;2023-06-14T05:57:01;20.10;;;9.07;;
54464;SDS011;40374;49.480;20.016;2023-06-14T05:59:30;14.95;;;8.93;;
54464;SDS011;40374;49.480;20.016;2023-06-14T06:01:58;20.13;;;8.65;;
54464;SDS011;40374;49.480;20.016;2023-06-14T06:04:25;12.23;;;7.55;;
54464;SDS011;40374;49.480;20.016;2023-06-14T06:06:53;16.27;;;8.02;;
54464;SDS011;40374;49.480;20.016;2023-06-14T06:09:20;13.05;;;8.00;;
54464;SDS011;40374;49.480;20.016;2023-06-14T06:11:48;15.90;;;7.97;;
54464;SDS011;40374;49.480;20.016;2023-06-14T06:14:20;13.10;;;7.30;;
54464;SDS011;40374;49.480;20.016;2023-06-14T06:16:47;16.67;;;8.68;;
54464;SDS011;40374;49.480;20.016;2023-06-14T06:19:15;15.55;;;9.05;;
54464;SDS011;40374;49.480;20.016;2023-06-14T06:21:43;17.15;;;9.05;;
54464;SDS011;40374;49.480;20.016;2023-06-14T06:24:10;13.05;;;8.07;;
54464;SDS011;40374;49.480;20.016;2023-06-14T06:26:38;17.67;;;8.35;;
54464;SDS011;40374;49.480;20.016;2023-06-14T06:29:06;18.45;;;9.10;;
54464;SDS011;40374;49.480;20.016;2023-06-14T06:31:34;13.63;;;7.70;;
54464;SDS011;40374;49.480;20.016;2023-06-14T06:34:01;14.30;;;8.68;;
54464;SDS011;40374;49.480;20.016;2023-06-14T06:36:30;16.10;;;8.30;;
54464;SDS011;40374;49.480;20.016;2023-06-14T06:38:57;17.65;;;8.45;;
54464;SDS011;40374;49.480;20.016;2023-06-14T06:41:25;16.92;;;6.97;;
54464;SDS011;40374;49.480;20.016;2023-06-14T06:43:54;15.25;;;7.70;;
54464;SDS011;40374;49.480;20.016;2023-06-14T06:46:28;10.35;;;6.82;;
54464;SDS011;40374;49.480;20.016;2023-06-14T06:48:55;11.80;;;6.95;;
54464;SDS011;40374;49.480;20.016;2023-06-14T06:51:23;12.13;;;6.35;;
54464;SDS011;40374;49.480;20.016;2023-06-14T06:53:53;9.05;;;6.07;;
54464;SDS011;40374;49.480;20.016;2023-06-14T06:56:22;14.80;;;6.07;;
54464;SDS011;40374;49.480;20.016;2023-06-14T06:58:51;10.02;;;6.25;;
54464;SDS011;40374;49.480;20.016;2023-06-14T07:01:19;7.75;;;5.70;;
54464;SDS011;40374;49.480;20.016;2023-06-14T07:03:51;7.53;;;5.43;;
54464;SDS011;40374;49.480;20.016;2023-06-14T07:06:19;7.60;;;5.30;;
54464;SDS011;40374;49.480;20.016;2023-06-14T07:08:47;6.85;;;3.53;;
54464;SDS011;40374;49.480;20.016;2023-06-14T07:11:15;2.75;;;2.20;;
54464;SDS011;40374;49.480;20.016;2023-06-14T07:13:43;4.20;;;2.88;;
54464;SDS011;40374;49.480;20.016;2023-06-14T07:16:10;7.85;;;2.67;;
54464;SDS011;40374;49.480;20.016;2023-06-14T07:18:38;9.80;;;3.70;;
54464;SDS011;40374;49.480;20.016;2023-06-14T07:21:06;8.35;;;3.45;;
54464;SDS011;40374;49.480;20.016;2023-06-14T07:23:33;5.07;;;3.28;;
54464;SDS011;40374;49.480;20.016;2023-06-14T07:26:01;8.57;;;3.80;;
54464;SDS011;40374;49.480;20.016;2023-06-14T07:28:30;4.10;;;3.45;;
54464;SDS011;40374;49.480;20.016;2023-06-14T07:30:57;4.70;;;3.60;;
54464;SDS011;40374;49.480;20.016;2023-06-14T07:33:25;6.70;;;4.72;;
54464;SDS011;40374;49.480;20.016;2023-06-14T07:35:58;11.02;;;4.05;;
54464;SDS011;40374;49.480;20.016;2023-06-14T07:38:25;4.75;;;3.75;;
54464;SDS011;40374;49.480;20.016;2023-06-14T07:40:53;5.88;;;3.25;;
54464;SDS011;40374;49.480;20.016;2023-06-14T07:43:20;4.53;;;3.15;;
54464;SDS011;40374;49.480;20.016;2023-06-14T07:45:49;7.32;;;4.05;;
54464;SDS011;40374;49.480;20.016;2023-06-14T07:48:31;5.25;;;3.42;;
54464;SDS011;40374;49.480;20.016;2023-06-14T07:51:00;3.75;;;3.00;;
54464;SDS011;40374;49.480;20.016;2023-06-14T07:53:28;5.82;;;2.15;;
54464;SDS011;40374;49.480;20.016;2023-06-14T07:55:56;5.65;;;2.40;;
54464;SDS011;40374;49.480;20.016;2023-06-14T07:58:24;2.85;;;2.40;;
54464;SDS011;40374;49.480;20.016;2023-06-14T08:00:52;3.33;;;2.47;;
54464;SDS011;40374;49.480;20.016;2023-06-14T08:03:19;3.03;;;2.42;;
54464;SDS011;40374;49.480;20.016;2023-06-14T08:05:47;2.25;;;2.05;;
54464;SDS011;40374;49.480;20.016;2023-06-14T08:08:15;3.65;;;2.53;;
54464;SDS011;40374;49.480;20.016;2023-06-14T08:10:43;9.77;;;2.30;;
54464;SDS011;40374;49.480;20.016;2023-06-14T08:13:11;4.68;;;2.42;;
54464;SDS011;40374;49.480;20.016;2023-06-14T08:15:39;4.22;;;1.70;;
54464;SDS011;40374;49.480;20.016;2023-06-14T08:18:06;6.68;;;2.67;;
54464;SDS011;40374;49.480;20.016;2023-06-14T08:20:34;4.00;;;2.80;;
54464;SDS011;40374;49.480;20.016;2023-06-14T08:23:02;3.03;;;2.40;;
54464;SDS011;40374;49.480;20.016;2023-06-14T08:25:31;6.65;;;2.53;;
54464;SDS011;40374;49.480;20.016;2023-06-14T08:27:58;3.42;;;2.47;;
54464;SDS011;40374;49.480;20.016;2023-06-14T08:30:27;6.47;;;2.30;;
54464;SDS011;40374;49.480;20.016;2023-06-14T08:32:54;2.50;;;2.28;;
54464;SDS011;40374;49.480;20.016;2023-06-14T08:35:42;3.83;;;2.03;;
54464;SDS011;40374;49.480;20.016;2023-06-14T08:38:10;1.98;;;1.67;;
54464;SDS011;40374;49.480;20.016;2023-06-14T08:40:43;2.05;;;1.83;;
54464;SDS011;40374;49.480;20.016;2023-06-14T08:43:26;2.30;;;2.05;;
54464;SDS011;40374;49.480;20.016;2023-06-14T08:45:57;6.22;;;2.22;;
54464;SDS011;40374;49.480;20.016;2023-06-14T08:48:46;5.32;;;2.25;;
54464;SDS011;40374;49.480;20.016;2023-06-14T08:51:19;3.63;;;2.15;;
54464;SDS011;40374;49.480;20.016;2023-06-14T08:53:51;2.13;;;1.80;;
54464;SDS011;40374;49.480;20.016;2023-06-14T08:56:28;7.00;;;1.45;;
54464;SDS011;40374;49.480;20.016;2023-06-14T08:58:57;5.28;;;2.20;;
54464;SDS011;40374;49.480;20.016;2023-06-14T09:01:28;8.02;;;2.65;;
54464;SDS011;40374;49.480;20.016;2023-06-14T09:03:58;4.90;;;2.90;;
54464;SDS011;40374;49.480;20.016;2023-06-14T09:06:26;9.02;;;4.28;;
54464;SDS011;40374;49.480;20.016;2023-06-14T09:08:55;4.10;;;2.53;;
54464;SDS011;40374;49.480;20.016;2023-06-14T09:11:26;3.15;;;1.70;;
54464;SDS011;40374;49.480;20.016;2023-06-14T09:13:54;3.60;;;2.20;;
54464;SDS011;40374;49.480;20.016;2023-06-14T09:16:22;4.75;;;1.70;;
54464;SDS011;40374;49.480;20.016;2023-06-14T09:18:50;1.33;;;1.23;;
54464;SDS011;40374;49.480;20.016;2023-06-14T09:21:18;2.22;;;1.67;;
54464;SDS011;40374;49.480;20.016;2023-06-14T09:23:46;8.77;;;2.33;;
54464;SDS011;40374;49.480;20.016;2023-06-14T09:26:16;7.40;;;2.30;;
54464;SDS011;40374;49.480;20.016;2023-06-14T09:28:50;4.65;;;1.27;;
54464;SDS011;40374;49.480;20.016;2023-06-14T09:31:19;1.55;;;1.30;;
54464;SDS011;40374;49.480;20.016;2023-06-14T09:33:50;4.95;;;1.70;;
54464;SDS011;40374;49.480;20.016;2023-06-14T09:36:22;3.30;;;2.08;;
54464;SDS011;40374;49.480;20.016;2023-06-14T09:41:35;4.15;;;1.48;;
54464;SDS011;40374;49.480;20.016;2023-06-14T09:44:03;2.72;;;2.20;;
54464;SDS011;40374;49.480;20.016;2023-06-14T09:46:38;1.52;;;1.30;;
54464;SDS011;40374;49.480;20.016;2023-06-14T09:49:06;2.17;;;1.23;;
54464;SDS011;40374;49.480;20.016;2023-06-14T09:51:36;3.33;;;1.70;;
54464;SDS011;40374;49.480;20.016;2023-06-14T09:54:09;1.67;;;1.58;;
54464;SDS011;40374;49.480;20.016;2023-06-14T09:56:47;3.65;;;1.40;;
54464;SDS011;40374;49.480;20.016;2023-06-14T09:59:16;2.17;;;1.58;;
54464;SDS011;40374;49.480;20.016;2023-06-14T10:01:49;2.78;;;1.42;;
54464;SDS011;40374;49.480;20.016;2023-06-14T10:04:18;1.98;;;1.50;;
54464;SDS011;40374;49.480;20.016;2023-06-14T10:06:49;1.55;;;1.38;;
54464;SDS011;40374;49.480;20.016;2023-06-14T10:09:18;1.15;;;1.13;;
54464;SDS011;40374;49.480;20.016;2023-06-14T10:11:48;5.72;;;1.50;;
54464;SDS011;40374;49.480;20.016;2023-06-14T10:14:16;1.80;;;1.48;;
54464;SDS011;40374;49.480;20.016;2023-06-14T10:19:40;1.30;;;1.20;;
54464;SDS011;40374;49.480;20.016;2023-06-14T10:22:19;7.65;;;1.20;;
54464;SDS011;40374;49.480;20.016;2023-06-14T10:25:06;1.13;;;1.00;;
54464;SDS011;40374;49.480;20.016;2023-06-14T10:30:14;4.13;;;1.40;;
54464;SDS011;40374;49.480;20.016;2023-06-14T10:35:26;2.40;;;1.33;;
54464;SDS011;40374;49.480;20.016;2023-06-14T10:37:54;1.65;;;1.42;;
54464;SDS011;40374;49.480;20.016;2023-06-14T10:40:31;1.60;;;1.50;;
54464;SDS011;40374;49.480;20.016;2023-06-14T10:42:59;2.88;;;1.45;;
54464;SDS011;40374;49.480;20.016;2023-06-14T10:45:26;1.63;;;1.38;;
54464;SDS011;40374;49.480;20.016;2023-06-14T10:47:56;1.27;;;1.10;;
54464;SDS011;40374;49.480;20.016;2023-06-14T10:50:27;4.13;;;1.40;;
54464;SDS011;40374;49.480;20.016;2023-06-14T10:53:01;3.47;;;1.20;;
54464;SDS011;40374;49.480;20.016;2023-06-14T10:55:51;2.15;;;1.55;;
54464;SDS011;40374;49.480;20.016;2023-06-14T10:58:19;3.83;;;1.70;;
54464;SDS011;40374;49.480;20.016;2023-06-14T11:00:46;4.00;;;1.50;;
54464;SDS011;40374;49.480;20.016;2023-06-14T11:06:00;2.30;;;1.85;;
54464;SDS011;40374;49.480;20.016;2023-06-14T11:08:58;1.40;;;1.27;;
54464;SDS011;40374;49.480;20.016;2023-06-14T11:11:49;2.65;;;1.50;;
54464;SDS011;40374;49.480;20.016;2023-06-14T11:14:19;3.33;;;1.42;;
54464;SDS011;40374;49.480;20.016;2023-06-14T11:16:50;2.13;;;1.20;;
54464;SDS011;40374;49.480;20.016;2023-06-14T11:19:18;2.25;;;1.50;;
54464;SDS011;40374;49.480;20.016;2023-06-14T11:21:49;1.80;;;1.70;;
54464;SDS011;40374;49.480;20.016;2023-06-14T11:26:31;1.65;;;1.55;;
54464;SDS011;40374;49.480;20.016;2023-06-14T11:29:01;3.35;;;1.70;;
54464;SDS011;40374;49.480;20.016;2023-06-14T11:31:29;2.28;;;1.80;;
54464;SDS011;40374;49.480;20.016;2023-06-14T11:33:57;2.00;;;1.48;;
54464;SDS011;40374;49.480;20.016;2023-06-14T11:36:26;1.60;;;1.50;;
54464;SDS011;40374;49.480;20.016;2023-06-14T11:39:02;2.00;;;1.60;;
54464;SDS011;40374;49.480;20.016;2023-06-14T11:41:40;1.40;;;1.30;;
54464;SDS011;40374;49.480;20.016;2023-06-14T11:44:09;1.35;;;1.25;;
54464;SDS011;40374;49.480;20.016;2023-06-14T11:46:37;2.50;;;2.30;;
54464;SDS011;40374;49.480;20.016;2023-06-14T11:49:06;11.15;;;1.98;;
54464;SDS011;40374;49.480;20.016;2023-06-14T11:51:34;2.55;;;1.80;;
54464;SDS011;40374;49.480;20.016;2023-06-14T11:54:03;3.33;;;1.70;;
54464;SDS011;40374;49.480;20.016;2023-06-14T11:56:31;1.70;;;1.60;;
54464;SDS011;40374;49.480;20.016;2023-06-14T11:59:01;1.52;;;1.42;;
54464;SDS011;40374;49.480;20.016;2023-06-14T12:01:30;2.20;;;2.00;;
54464;SDS011;40374;49.480;20.016;2023-06-14T12:03:59;6.85;;;1.90;;
54464;SDS011;40374;49.480;20.016;2023-06-14T12:06:28;2.08;;;1.88;;
54464;SDS011;40374;49.480;20.016;2023-06-14T12:09:04;2.13;;;1.70;;
54464;SDS011;40374;49.480;20.016;2023-06-14T12:11:37;6.10;;;2.05;;
54464;SDS011;40374;49.480;20.016;2023-06-14T12:14:05;3.15;;;2.42;;
54464;SDS011;40374;49.480;20.016;2023-06-14T12:16:34;3.28;;;2.13;;
54464;SDS011;40374;49.480;20.016;2023-06-14T12:19:25;4.50;;;2.45;;
54464;SDS011;40374;49.480;20.016;2023-06-14T12:21:53;3.92;;;2.40;;
54464;SDS011;40374;49.480;20.016;2023-06-14T12:24:21;2.50;;;2.10;;
54464;SDS011;40374;49.480;20.016;2023-06-14T12:26:57;6.78;;;2.45;;
54464;SDS011;40374;49.480;20.016;2023-06-14T12:29:26;8.13;;;2.72;;
54464;SDS011;40374;49.480;20.016;2023-06-14T12:31:54;6.78;;;2.58;;
54464;SDS011;40374;49.480;20.016;2023-06-14T12:34:24;8.95;;;3.70;;
54464;SDS011;40374;49.480;20.016;2023-06-14T12:36:52;3.13;;;2.50;;
54464;SDS011;40374;49.480;20.016;2023-06-14T12:39:23;2.70;;;2.13;;
54464;SDS011;40374;49.480;20.016;2023-06-14T12:41:51;6.38;;;2.65;;
54464;SDS011;40374;49.480;20.016;2023-06-14T12:44:19;2.78;;;2.40;;
54464;SDS011;40374;49.480;20.016;2023-06-14T12:46:46;3.50;;;2.80;;
54464;SDS011;40374;49.480;20.016;2023-06-14T12:49:14;9.30;;;2.33;;
54464;SDS011;40374;49.480;20.016;2023-06-14T12:51:42;2.70;;;2.50;;
54464;SDS011;40374;49.480;20.016;2023-06-14T12:54:10;3.85;;;2.60;;
54464;SDS011;40374;49.480;20.016;2023-06-14T12:56:39;2.92;;;2.65;;
54464;SDS011;40374;49.480;20.016;2023-06-14T12:59:08;3.30;;;2.67;;
54464;SDS011;40374;49.480;20.016;2023-06-14T13:01:37;2.90;;;2.38;;
54464;SDS011;40374;49.480;20.016;2023-06-14T13:04:08;3.03;;;2.40;;
54464;SDS011;40374;49.480;20.016;2023-06-14T13:06:35;2.92;;;2.40;;
54464;SDS011;40374;49.480;20.016;2023-06-14T13:09:04;40.67;;;4.10;;
54464;SDS011;40374;49.480;20.016;2023-06-14T13:11:32;4.20;;;2.17;;
54464;SDS011;40374;49.480;20.016;2023-06-14T13:14:00;7.70;;;1.90;;
54464;SDS011;40374;49.480;20.016;2023-06-14T13:16:43;2.20;;;2.00;;
54464;SDS011;40374;49.480;20.016;2023-06-14T13:19:11;2.97;;;2.00;;
54464;SDS011;40374;49.480;20.016;2023-06-14T13:21:38;2.45;;;2.15;;
54464;SDS011;40374;49.480;20.016;2023-06-14T13:24:06;2.42;;;2.22;;
54464;SDS011;40374;49.480;20.016;2023-06-14T13:26:34;4.25;;;1.65;;
54464;SDS011;40374;49.480;20.016;2023-06-14T13:29:02;4.18;;;2.22;;
54464;SDS011;40374;49.480;20.016;2023-06-14T13:31:30;16.88;;;2.35;;
54464;SDS011;40374;49.480;20.016;2023-06-14T13:33:58;215.40;;;13.27;;
54464;SDS011;40374;49.480;20.016;2023-06-14T13:36:26;6.63;;;2.05;;
54464;SDS011;40374;49.480;20.016;2023-06-14T13:38:53;2.90;;;2.10;;
54464;SDS011;40374;49.480;20.016;2023-06-14T13:41:22;2.20;;;2.00;;
54464;SDS011;40374;49.480;20.016;2023-06-14T13:43:50;6.78;;;2.03;;
54464;SDS011;40374;49.480;20.016;2023-06-14T13:46:17;2.92;;;2.00;;
54464;SDS011;40374;49.480;20.016;2023-06-14T13:48:47;2.72;;;2.10;;
54464;SDS011;40374;49.480;20.016;2023-06-14T13:51:17;4.22;;;1.88;;
54464;SDS011;40374;49.480;20.016;2023-06-14T13:53:47;2.35;;;2.15;;
54464;SDS011;40374;49.480;20.016;2023-06-14T13:57:33;2.58;;;2.38;;
54464;SDS011;40374;49.480;20.016;2023-06-14T14:00:01;9.20;;;2.28;;
54464;SDS011;40374;49.480;20.016;2023-06-14T14:02:38;2.33;;;2.13;;
54464;SDS011;40374;49.480;20.016;2023-06-14T14:05:08;3.55;;;2.75;;
54464;SDS011;40374;49.480;20.016;2023-06-14T14:07:36;5.05;;;2.67;;
54464;SDS011;40374;49.480;20.016;2023-06-14T14:10:05;3.10;;;2.80;;
54464;SDS011;40374;49.480;20.016;2023-06-14T14:12:33;3.75;;;2.80;;
54464;SDS011;40374;49.480;20.016;2023-06-14T14:15:01;2.88;;;2.60;;
54464;SDS011;40374;49.480;20.016;2023-06-14T14:17:29;3.88;;;2.42;;
54464;SDS011;40374;49.480;20.016;2023-06-14T14:19:57;4.90;;;2.83;;
54464;SDS011;40374;49.480;20.016;2023-06-14T14:22:24;3.22;;;2.92;;
54464;SDS011;40374;49.480;20.016;2023-06-14T14:24:52;4.85;;;2.40;;
54464;SDS011;40374;49.480;20.016;2023-06-14T14:27:19;4.00;;;2.72;;
54464;SDS011;40374;49.480;20.016;2023-06-14T14:29:47;7.20;;;2.70;;
54464;SDS011;40374;49.480;20.016;2023-06-14T14:32:15;6.88;;;2.78;;
54464;SDS011;40374;49.480;20.016;2023-06-14T14:34:43;5.53;;;3.05;;
54464;SDS011;40374;49.480;20.016;2023-06-14T14:37:10;4.80;;;3.15;;
54464;SDS011;40374;49.480;20.016;2023-06-14T14:39:38;3.72;;;2.70;;
54464;SDS011;40374;49.480;20.016;2023-06-14T14:42:06;4.15;;;3.03;;
54464;SDS011;40374;49.480;20.016;2023-06-14T14:44:35;3.33;;;2.58;;
54464;SDS011;40374;49.480;20.016;2023-06-14T14:47:02;2.85;;;2.58;;
54464;SDS011;40374;49.480;20.016;2023-06-14T14:49:30;5.85;;;3.22;;
54464;SDS011;40374;49.480;20.016;2023-06-14T14:51:58;3.90;;;3.00;;
54464;SDS011;40374;49.480;20.016;2023-06-14T14:54:45;3.45;;;3.15;;
54464;SDS011;40374;49.480;20.016;2023-06-14T14:57:12;4.32;;;3.33;;